Archival Weather

Downtown Manhattan/Wall St

New York, Downtown Manhattan/Wall St (KJRB)

Report from: Friday, February 23, 2024 2:12 PM EST
Current time: Wednesday, May 29, 2024 7:42 PM EDT

Current weather – Weather history – Daily summaries
Weather forecast

Temperature7.0°C (44.6°F)
Wind chill5.2°C (41.4°F)
Dew point4.0°C (39.2°F)
Winds 5 kts (2.6 m/s, 5.8 mph) Vrb
Winds variableWinds variable
Visibility10 mi. (16.1 km)
Clouds Scattered clouds 1,800 ft. (549 m)
Ceiling: Overcast 3,300 ft. (1,006 m)
Altimeter29.47 in.Hg (998 mB)
Relative humidity81 %
Density altitude-320 ft. (-98 m)
Remarks Fully automated report
System requires maintenance
Automated weather observing station with precipitation discriminator
Precipitation sensor not operating
Flight conditions Visual Meteorological Conditions
Raw dataKJRB 231912Z AUTO VRB05KT 10SM SCT018 OVC033 07/04 A2947 RMK AO2 PNO $
An error has occurred. This application may no longer respond until reloaded. Reload 🗙